createdAt,value
2022-09-15T00:02:30.099Z,97.2
2022-09-15T00:05:17.970Z,97.4
2022-09-15T00:08:06.215Z,97.2
2022-09-15T00:10:54.151Z,96.7
2022-09-15T00:13:48.030Z,97.4
2022-09-15T00:16:36.834Z,98.2
2022-09-15T00:19:25.218Z,98.1
2022-09-15T00:22:12.919Z,98.4
2022-09-15T00:25:01.129Z,97.4
2022-09-15T00:27:49.172Z,97
2022-09-15T00:30:36.946Z,96.8
2022-09-15T00:33:27.501Z,96.8
2022-09-15T00:36:15.156Z,96.5
2022-09-15T00:39:04.503Z,97.1
2022-09-15T00:41:52.157Z,97.7
2022-09-15T00:44:40.660Z,98.4
2022-09-15T00:47:36.241Z,98.6
2022-09-15T00:50:25.306Z,98.4
2022-09-15T00:53:13.203Z,98
2022-09-15T00:56:02.733Z,97.7
2022-09-15T00:58:52.627Z,97.2
2022-09-15T01:01:46.114Z,96.8
2022-09-15T01:04:39.804Z,97.3
2022-09-15T01:07:27.557Z,97.9
2022-09-15T01:10:22.075Z,97.6
2022-09-15T01:13:13.221Z,97.9
2022-09-15T01:16:01.018Z,97.7
2022-09-15T01:18:58.675Z,97.9
2022-09-15T01:22:00.700Z,97.5
2022-09-15T01:25:02.171Z,98.1
2022-09-15T01:27:55.189Z,97.6
2022-09-15T01:31:08.845Z,98
2022-09-15T01:34:03.221Z,98.5
2022-09-15T01:36:57.941Z,98.5
2022-09-15T01:39:51.224Z,97.8
2022-09-15T01:42:43.868Z,97.6
2022-09-15T01:45:35.326Z,97.9
2022-09-15T01:48:26.263Z,97.6
2022-09-15T01:51:15.391Z,97.8
2022-09-15T01:54:03.632Z,97.8
2022-09-15T01:56:52.767Z,97.7
2022-09-15T01:59:41.713Z,97.5
2022-09-15T02:02:29.700Z,98
2022-09-15T02:05:23.081Z,99
2022-09-15T02:08:19.532Z,97.8
2022-09-15T02:11:13.295Z,97.8
2022-09-15T02:14:03.773Z,97.6
2022-09-15T02:16:58.957Z,96.9
2022-09-15T02:19:47.584Z,98.3
2022-09-15T02:22:38.919Z,98.8
2022-09-15T02:25:31.349Z,98.5
2022-09-15T02:28:24.097Z,97.9
2022-09-15T02:31:16.785Z,98
2022-09-15T02:34:08.478Z,98.2
2022-09-15T02:37:00.115Z,98.1
2022-09-15T02:39:49.620Z,98.6
2022-09-15T02:42:42.545Z,98.8
2022-09-15T02:45:39.196Z,98.7
2022-09-15T02:48:27.650Z,98.8
2022-09-15T02:51:15.214Z,98.3
2022-09-15T02:54:03.441Z,98.7
2022-09-15T02:56:51.452Z,99
2022-09-15T02:59:39.169Z,99.6
2022-09-15T03:02:58.648Z,99.3
2022-09-15T03:05:46.244Z,99.1
2022-09-15T03:08:33.901Z,99
2022-09-15T03:11:21.517Z,98.5
2022-09-15T03:14:11.652Z,98.6
2022-09-15T03:16:59.245Z,98.5
2022-09-15T03:19:47.152Z,98.7
2022-09-15T03:22:35.452Z,99
2022-09-15T03:25:23.319Z,98.7
2022-09-15T03:28:11.718Z,98.5
2022-09-15T03:30:59.327Z,99
2022-09-15T03:33:47.512Z,99.7
2022-09-15T03:36:35.229Z,98.9
2022-09-15T03:39:23.014Z,99.7
2022-09-15T03:42:10.715Z,99.3
2022-09-15T03:44:58.773Z,99.2
2022-09-15T03:47:46.254Z,99.4
2022-09-15T03:50:33.796Z,99.5
2022-09-15T03:53:21.433Z,98.8
2022-09-15T03:56:09.389Z,98.2
2022-09-15T03:59:02.504Z,99.1
2022-09-15T04:01:51.142Z,98.2
2022-09-15T04:04:38.712Z,97.8
2022-09-15T04:07:26.301Z,98.9
2022-09-15T04:10:13.865Z,98.4
2022-09-15T04:13:01.897Z,98
2022-09-15T04:15:49.647Z,98.1
2022-09-15T04:18:45.669Z,98.3
2022-09-15T04:21:33.929Z,98.4
2022-09-15T04:24:21.593Z,98.6
2022-09-15T04:27:09.186Z,98.4
2022-09-15T04:29:56.757Z,98.5
2022-09-15T04:32:44.286Z,98.8
2022-09-15T04:35:32.311Z,99.2
2022-09-15T04:38:19.954Z,99
2022-09-15T04:41:07.737Z,99.2
2022-09-15T04:43:56.169Z,99.2
2022-09-15T04:46:45.268Z,99.2
2022-09-15T04:49:33.380Z,99.3
2022-09-15T04:52:20.948Z,99.6
2022-09-15T04:55:08.873Z,99.6
2022-09-15T04:57:56.408Z,99.7
2022-09-15T05:00:44.021Z,99.7
2022-09-15T05:03:31.706Z,99.9
2022-09-15T05:06:21.969Z,99.4
2022-09-15T05:09:12.295Z,99.3
2022-09-15T05:12:00.089Z,99.1
2022-09-15T05:14:47.914Z,99.1
2022-09-15T05:17:35.455Z,100
2022-09-15T05:20:23.319Z,99.8
2022-09-15T05:23:11.134Z,100
2022-09-15T05:25:59.190Z,99.3
2022-09-15T05:28:49.399Z,99.4
2022-09-15T05:31:37.770Z,99.1
2022-09-15T05:34:25.474Z,99.1
2022-09-15T05:37:13.055Z,99
2022-09-15T05:40:03.252Z,98.7
2022-09-15T05:42:55.450Z,98.8
2022-09-15T05:45:43.201Z,99.1
2022-09-15T05:48:39.657Z,98.6
2022-09-15T05:51:27.656Z,98.8
2022-09-15T05:54:15.441Z,99.1
2022-09-15T05:57:03.023Z,99.2
2022-09-15T05:59:50.908Z,99.2
2022-09-15T06:02:38.641Z,98.9
2022-09-15T06:05:26.540Z,98.7
2022-09-15T06:08:14.834Z,98.9
2022-09-15T06:11:02.419Z,98.3
2022-09-15T06:13:53.069Z,98.3
2022-09-15T06:16:44.087Z,98.7
2022-09-15T06:19:31.762Z,98.2
2022-09-15T06:22:19.345Z,97.8
2022-09-15T06:25:06.906Z,98.4
2022-09-15T06:27:55.657Z,97.9
2022-09-15T06:30:43.626Z,98.2
2022-09-15T06:33:34.288Z,97.5
2022-09-15T06:36:22.048Z,98
2022-09-15T06:39:12.208Z,97.6
2022-09-15T06:42:02.614Z,97.2
2022-09-15T06:44:52.371Z,95.9
2022-09-15T06:47:41.256Z,96
2022-09-15T06:50:28.925Z,94.6
2022-09-15T06:53:16.461Z,95
2022-09-15T06:56:04.437Z,95
2022-09-15T06:58:55.504Z,94.2
2022-09-15T07:01:59.385Z,93.6
2022-09-15T07:04:49.092Z,94
2022-09-15T07:07:36.759Z,94.3
2022-09-15T07:10:24.404Z,94.6
2022-09-15T07:13:12.084Z,94.9
2022-09-15T07:16:00.037Z,95
2022-09-15T07:18:49.629Z,94
2022-09-15T07:21:41.459Z,93.5
2022-09-15T07:24:30.283Z,93.1
2022-09-15T07:27:17.944Z,91.7
2022-09-15T07:30:07.168Z,90.5
2022-09-15T07:32:55.953Z,89.9
2022-09-15T07:35:43.826Z,91.2
2022-09-15T07:38:31.482Z,89
2022-09-15T07:41:19.919Z,89.9
2022-09-15T07:44:09.390Z,89.6
2022-09-15T07:46:57.949Z,86.8
2022-09-15T07:49:45.493Z,88
2022-09-15T07:52:33.142Z,86.8
2022-09-15T07:55:20.979Z,83.2
2022-09-15T07:58:08.913Z,83.9
2022-09-15T08:00:56.641Z,81.1
2022-09-15T08:03:47.884Z,84.6
2022-09-15T08:06:37.759Z,81.3
2022-09-15T08:09:25.495Z,80.5
2022-09-15T08:12:13.059Z,78.4
2022-09-15T08:15:01.328Z,79.3
2022-09-15T08:17:49.724Z,77.8
2022-09-15T08:20:37.687Z,79.7
2022-09-15T08:23:26.415Z,78.8
2022-09-15T08:26:14.560Z,79.6
2022-09-15T08:29:02.439Z,79.3
2022-09-15T08:31:50.364Z,78
2022-09-15T08:34:37.979Z,76.6
2022-09-15T08:37:25.559Z,76.1
2022-09-15T08:40:13.335Z,74.2
2022-09-15T08:43:04.440Z,74.6
2022-09-15T08:46:02.121Z,75.1
2022-09-15T08:48:52.648Z,75.2
2022-09-15T08:51:47.394Z,72.9
2022-09-15T08:54:37.769Z,72.9
2022-09-15T08:57:25.404Z,72.3
2022-09-15T09:00:13.509Z,73.2
2022-09-15T09:03:02.720Z,73.4
2022-09-15T09:06:10.141Z,72.7
2022-09-15T09:09:07.984Z,72.5
2022-09-15T09:12:04.904Z,73.1
2022-09-15T09:15:08.395Z,69.2
2022-09-15T09:18:21.716Z,72.2
2022-09-15T09:21:35.982Z,69.1
2022-09-15T09:24:26.599Z,71.9
2022-09-15T09:27:21.841Z,69
2022-09-15T09:30:14.492Z,68.6
2022-09-15T09:33:04.849Z,68.2
2022-09-15T09:36:10.963Z,67.8
2022-09-15T09:38:58.958Z,65.5
2022-09-15T09:41:47.500Z,65.9
2022-09-15T09:44:35.932Z,65.5
2022-09-15T09:47:25.560Z,65.8
2022-09-15T09:50:14.430Z,64.5
2022-09-15T09:53:21.477Z,65.4
2022-09-15T09:56:13.456Z,65.8
2022-09-15T09:59:07.162Z,65.1
2022-09-15T10:02:19.965Z,65.3
2022-09-15T10:05:09.669Z,65.4
2022-09-15T10:08:05.512Z,66.1
2022-09-15T10:10:59.969Z,65.9
2022-09-15T10:13:50.475Z,67.5
2022-09-15T10:16:41.335Z,66.8
2022-09-15T10:19:29.332Z,67.1
2022-09-15T10:22:20.153Z,67.1
2022-09-15T10:25:11.931Z,67.6
2022-09-15T10:28:17.001Z,68
2022-09-15T10:31:08.453Z,69.4
2022-09-15T10:33:58.432Z,71
2022-09-15T10:37:09.991Z,68.6
2022-09-15T10:40:11.517Z,68.9
2022-09-15T10:43:17.724Z,69.7
2022-09-15T10:46:22.143Z,69.5
2022-09-15T10:49:13.636Z,69.3
2022-09-15T10:52:19.671Z,71.1
2022-09-15T10:55:31.805Z,70
2022-09-15T10:58:30.556Z,69.2
2022-09-15T11:01:33.485Z,67
2022-09-15T11:04:43.749Z,67
2022-09-15T11:07:49.450Z,68.2
2022-09-15T11:10:51.200Z,69.9
2022-09-15T11:13:46.486Z,69
2022-09-15T11:16:49.423Z,70.5
2022-09-15T11:19:52.177Z,71
2022-09-15T11:22:55.224Z,71.1
2022-09-15T11:25:50.462Z,71.9
2022-09-15T11:28:45.352Z,70.6
2022-09-15T11:31:39.144Z,69.9
2022-09-15T11:34:31.468Z,70.5
2022-09-15T11:37:26.225Z,70.2
2022-09-15T11:40:23.497Z,68.5
2022-09-15T11:43:15.750Z,68.4
2022-09-15T11:46:09.604Z,68.2
2022-09-15T11:49:03.684Z,66.2
2022-09-15T11:51:58.718Z,62.2
2022-09-15T11:54:51.934Z,62.3
2022-09-15T11:57:48.242Z,60.5
2022-09-15T12:00:48.293Z,62.3
2022-09-15T12:03:41.491Z,62.2
2022-09-15T12:06:35.339Z,64.5
2022-09-15T12:09:31.191Z,63.9
2022-09-15T12:12:19.131Z,62.6
2022-09-15T12:15:08.316Z,62.9
2022-09-15T12:18:06.565Z,62.1
2022-09-15T12:21:11.280Z,62.3
2022-09-15T12:24:04.465Z,63.1
2022-09-15T12:27:01.727Z,62.2
2022-09-15T12:29:50.060Z,62.5
2022-09-15T12:32:39.157Z,60.2
2022-09-15T12:35:27.136Z,58.2
2022-09-15T12:38:16.671Z,58.7
2022-09-15T12:41:08.587Z,55.4
2022-09-15T12:43:57.227Z,54.7
2022-09-15T12:47:01.439Z,55.8
2022-09-15T12:49:52.775Z,54.2
2022-09-15T12:52:45.686Z,51.6
2022-09-15T12:55:37.919Z,53
2022-09-15T12:58:35.535Z,52.8
2022-09-15T13:01:25.908Z,54.1
2022-09-15T13:04:18.226Z,54.8
2022-09-15T13:07:28.636Z,54.7
2022-09-15T13:10:20.332Z,54.6
2022-09-15T13:13:15.116Z,54.8
2022-09-15T13:16:13.061Z,54.4
2022-09-15T13:19:05.729Z,53.8
2022-09-15T13:21:58.962Z,56.2
2022-09-15T13:24:51.567Z,54.3
2022-09-15T13:27:45.059Z,52.3
2022-09-15T13:30:36.750Z,52.9
2022-09-15T13:40:53.754Z,51.2
2022-09-15T13:44:04.577Z,52.3
2022-09-15T13:47:12.964Z,52.2
2022-09-15T13:50:15.253Z,49.5
2022-09-15T13:53:09.216Z,49.7
2022-09-15T13:56:13.965Z,51.9
2022-09-15T13:59:13.715Z,49.9
2022-09-15T14:02:08.209Z,49.6
2022-09-15T14:04:57.492Z,48.3
2022-09-15T14:07:46.134Z,48.2
2022-09-15T14:10:41.914Z,48.5
2022-09-15T14:13:36.303Z,50
2022-09-15T14:16:29.983Z,51
2022-09-15T14:19:20.457Z,50.7
2022-09-15T14:22:17.973Z,51.8
2022-09-15T14:25:11.833Z,52
2022-09-15T14:28:01.850Z,52.8
2022-09-15T14:31:03.755Z,52.3
2022-09-15T14:33:51.798Z,53.3
2022-09-15T14:36:39.582Z,52.8
2022-09-15T14:39:27.700Z,52
2022-09-15T14:42:17.782Z,52.4
2022-09-15T14:48:34.756Z,52.2
2022-09-15T14:51:22.847Z,52.4
2022-09-15T14:54:13.287Z,52.7
2022-09-15T14:57:06.970Z,52.6
2022-09-15T14:59:55.791Z,54
2022-09-15T15:02:49.793Z,53.4
2022-09-15T15:05:54.673Z,53.4
2022-09-15T15:08:56.695Z,53.4
2022-09-15T15:11:48.910Z,54
2022-09-15T15:14:41.063Z,54.7
2022-09-15T15:17:28.967Z,54.1
2022-09-15T15:20:20.214Z,53.8
2022-09-15T15:23:11.531Z,53.9
2022-09-15T15:26:03.839Z,54.5
2022-09-15T15:29:24.053Z,56
2022-09-15T15:32:28.779Z,54.3
2022-09-15T15:35:16.856Z,54.6
2022-09-15T15:38:05.940Z,54.8
2022-09-15T15:41:01.485Z,55.6
2022-09-15T15:43:52.642Z,55.6
2022-09-15T15:46:44.426Z,57.1
2022-09-15T15:49:42.314Z,56.5
2022-09-15T15:52:41.881Z,56.8
2022-09-15T15:55:29.784Z,57.2
2022-09-15T15:58:24.140Z,56.9
2022-09-15T16:01:12.134Z,57.1
2022-09-15T16:03:59.914Z,57.8
2022-09-15T16:06:48.005Z,57.6
2022-09-15T16:09:37.031Z,58.3
2022-09-15T16:12:24.600Z,58.5
2022-09-15T16:15:12.270Z,58
2022-09-15T16:18:02.961Z,58.6
2022-09-15T16:20:50.824Z,57.5
2022-09-15T16:23:38.757Z,58
2022-09-15T16:26:26.507Z,57.1
2022-09-15T16:29:15.923Z,57.2
2022-09-15T16:32:03.587Z,58.8
2022-09-15T16:34:52.026Z,58.4
2022-09-15T16:37:39.606Z,58.7
2022-09-15T16:40:27.255Z,58.4
2022-09-15T16:43:15.045Z,58.9
2022-09-15T16:46:04.433Z,59.2
2022-09-15T16:48:54.083Z,60.3
2022-09-15T16:51:42.999Z,59.7
2022-09-15T16:54:30.626Z,60.2
2022-09-15T16:57:18.223Z,60.5
2022-09-15T17:00:07.086Z,60.7
2022-09-15T17:02:56.285Z,60.9
2022-09-15T17:05:47.799Z,61.6
2022-09-15T17:08:38.017Z,61.9
2022-09-15T17:11:26.319Z,62.2
2022-09-15T17:14:14.842Z,62.8
2022-09-15T17:17:03.314Z,64
2022-09-15T17:20:15.766Z,63.4
2022-09-15T17:23:04.174Z,63.9
2022-09-15T17:26:03.150Z,63.9
2022-09-15T17:28:55.611Z,64.2
2022-09-15T17:31:43.582Z,64.8
2022-09-15T17:34:31.516Z,65.7
2022-09-15T17:37:19.099Z,65.1
2022-09-15T17:40:06.814Z,65.6
2022-09-15T17:42:55.752Z,65.8
2022-09-15T17:45:45.266Z,66.2
2022-09-15T17:48:35.479Z,66.4
2022-09-15T17:51:23.693Z,66.7
2022-09-15T17:54:11.217Z,67
2022-09-15T17:56:59.011Z,67.2
2022-09-15T17:59:46.584Z,67.4
2022-09-15T18:02:34.488Z,68.1
2022-09-15T18:05:23.337Z,68.2
2022-09-15T18:08:13.281Z,68.5
2022-09-15T18:11:01.469Z,68.8
2022-09-15T18:13:51.113Z,68.9
2022-09-15T18:16:38.850Z,69.1
2022-09-15T18:19:27.362Z,69.4
2022-09-15T18:22:14.939Z,69.6
2022-09-15T18:25:02.769Z,69.8
2022-09-15T18:27:51.444Z,69.7
2022-09-15T18:30:40.724Z,69.6
2022-09-15T18:33:30.535Z,69.7
2022-09-15T18:36:18.246Z,69.8
2022-09-15T18:39:05.982Z,69.8
2022-09-15T18:41:56.639Z,69.9
2022-09-15T18:44:44.438Z,70
2022-09-15T18:47:32.421Z,70.5
2022-09-15T18:50:21.157Z,70.4
2022-09-15T18:53:10.343Z,70.2
2022-09-15T18:55:59.008Z,71
2022-09-15T18:58:47.276Z,70.7
2022-09-15T19:01:38.331Z,70.8
2022-09-15T19:04:31.044Z,71.1
2022-09-15T19:07:19.986Z,71.1
2022-09-15T19:10:07.611Z,71.4
2022-09-15T19:12:57.019Z,72.4
2022-09-15T19:15:45.165Z,73.9
2022-09-15T19:18:33.589Z,74.8
2022-09-15T19:21:26.586Z,75
2022-09-15T19:24:14.880Z,74.8
2022-09-15T19:27:02.737Z,75
2022-09-15T19:29:52.317Z,74.5
2022-09-15T19:32:40.124Z,74.5
2022-09-15T19:35:28.655Z,74.5
2022-09-15T19:38:16.609Z,74.7
2022-09-15T19:41:05.156Z,74.6
2022-09-15T19:43:56.041Z,74.7
2022-09-15T19:46:47.153Z,75.3
2022-09-15T19:49:35.034Z,75.2
2022-09-15T19:52:23.320Z,76.1
2022-09-15T19:55:12.273Z,75.9
2022-09-15T19:58:00.369Z,76.1
2022-09-15T20:00:48.397Z,76.4
2022-09-15T20:06:58.485Z,77
2022-09-15T20:09:46.076Z,77.3
2022-09-15T20:12:33.974Z,77.2
2022-09-15T20:15:21.625Z,77.4
2022-09-15T20:18:09.281Z,77.5
2022-09-15T20:20:57.149Z,78.1
2022-09-15T20:23:45.222Z,78
2022-09-15T20:26:32.916Z,78.3
2022-09-15T20:29:21.379Z,78.9
2022-09-15T20:32:09.528Z,79.3
2022-09-15T20:34:57.097Z,79
2022-09-15T20:37:44.917Z,79.3
2022-09-15T20:40:34.165Z,79.6
2022-09-15T20:43:21.897Z,80
2022-09-15T20:46:10.260Z,80.6
2022-09-15T20:49:00.042Z,80.5
2022-09-15T20:51:48.249Z,81.6
2022-09-15T20:54:36.366Z,81.2
2022-09-15T20:57:24.121Z,81.8
2022-09-15T21:00:11.820Z,83
2022-09-15T21:03:00.526Z,82.7
2022-09-15T21:05:48.317Z,83.1
2022-09-15T21:08:44.295Z,83.2
2022-09-15T21:11:32.452Z,84.1
2022-09-15T21:14:20.759Z,84.4
2022-09-15T21:17:09.170Z,83.8
2022-09-15T21:19:56.854Z,83.5
2022-09-15T21:22:44.490Z,83.5
2022-09-15T21:25:32.213Z,83.2
2022-09-15T21:28:19.869Z,83.7
2022-09-15T21:31:07.491Z,83.6
2022-09-15T21:33:56.597Z,83.6
2022-09-15T21:36:45.314Z,84.2
2022-09-15T21:39:36.324Z,83.9
2022-09-15T21:42:24.087Z,84.5
2022-09-15T21:45:12.102Z,85.6
2022-09-15T21:47:59.754Z,85.1
2022-09-15T21:50:47.806Z,85.2
2022-09-15T21:53:35.813Z,85.6
2022-09-15T21:56:23.789Z,85.3
2022-09-15T21:59:12.965Z,85.5
2022-09-15T22:02:02.870Z,85.8
2022-09-15T22:04:50.473Z,85.8
2022-09-15T22:07:37.965Z,86.7
2022-09-15T22:10:25.533Z,86.4
2022-09-15T22:13:14.912Z,86.8
2022-09-15T22:16:02.702Z,87.3
2022-09-15T22:18:52.596Z,87.2
2022-09-15T22:21:42.316Z,87.2
2022-09-15T22:24:30.660Z,87.8
2022-09-15T22:27:18.214Z,88
2022-09-15T22:30:05.855Z,87.6
2022-09-15T22:32:55.282Z,88
2022-09-15T22:35:43.229Z,88.2
2022-09-15T22:38:32.626Z,89
2022-09-15T22:41:20.199Z,88.7
2022-09-15T22:44:10.444Z,88.9
2022-09-15T22:47:04.383Z,88.8
2022-09-15T22:49:52.400Z,89.3
2022-09-15T22:52:39.935Z,89.5
2022-09-15T22:55:27.756Z,89.7
2022-09-15T22:58:15.917Z,89.5
2022-09-15T23:01:04.183Z,89.9
2022-09-15T23:03:54.209Z,90.2
2022-09-15T23:06:44.603Z,90.6
2022-09-15T23:09:33.685Z,90.3
2022-09-15T23:12:21.289Z,90.6
2022-09-15T23:15:08.829Z,90.6
2022-09-15T23:17:56.873Z,90.2
2022-09-15T23:20:44.576Z,90.1
2022-09-15T23:23:32.208Z,90.2
2022-09-15T23:26:21.567Z,90.2
2022-09-15T23:29:10.405Z,90.6
2022-09-15T23:31:58.245Z,90.3
2022-09-15T23:34:46.013Z,90.2
2022-09-15T23:37:33.612Z,90.2
2022-09-15T23:40:21.440Z,90.4
2022-09-15T23:43:10.815Z,91
2022-09-15T23:45:59.479Z,90.5
2022-09-15T23:48:48.298Z,91.3
2022-09-15T23:51:35.882Z,90.8
2022-09-15T23:54:23.304Z,91
2022-09-15T23:57:10.981Z,91
2022-09-15T23:59:58.629Z,91.1
